Time;durP1;ratioP1;P1;durP2;ratioP2;P2;SDS_P1;SDS_P2;PMS_P1;PMS_P2;Temp;Humidity;BMP_temperature;BMP_pressure;BME280_temperature;BME280_humidity;BME280_pressure;Samples;Min_cycle;Max_cycle;Signal;HPM_P1;HPM_P2
2021/06/18 00:01:02;;;;;;;6.80;5.47;;;;;;;;;;10324515;28;20098;-68
2021/06/18 00:06:01;;;;;;;9.45;6.63;;;;;;;;;;10323852;28;20438;-65
2021/06/18 00:10:58;;;;;;;8.23;6.57;;;;;;;;;;10336200;28;20119;-68
2021/06/18 00:15:56;;;;;;;8.15;6.35;;;;;;;;;;10318275;28;20171;-63
2021/06/18 00:20:53;;;;;;;8.77;6.00;;;;;;;;;;10312865;28;20082;-65
2021/06/18 00:25:51;;;;;;;9.80;7.07;;;;;;;;;;10335048;28;20459;-64
2021/06/18 00:30:48;;;;;;;8.67;6.30;;;;;;;;;;10329264;28;20434;-67
2021/06/18 00:35:45;;;;;;;11.23;7.07;;;;;;;;;;10336046;28;20413;-68
2021/06/18 00:40:43;;;;;;;;;;;;;;;;;;10337214;28;20283;-66
2021/06/18 00:45:40;;;;;;;10.32;7.07;;;;;;;;;;10317648;28;19913;-67
2021/06/18 00:50:37;;;;;;;;;;;;;;;;;;10327822;28;20576;-66
2021/06/18 00:55:35;;;;;;;9.02;6.90;;;;;;;;;;10336234;28;19917;-66
2021/06/18 01:00:32;;;;;;;;;;;;;;;;;;10336951;28;20033;-64
2021/06/18 01:05:30;;;;;;;8.82;6.88;;;;;;;;;;10336358;28;20012;-65
2021/06/18 01:10:27;;;;;;;;;;;;;;;;;;10333048;28;20059;-67
2021/06/18 01:15:33;;;;;;;9.10;7.65;;;;;;;;;;10326094;28;19982;-66
2021/06/18 01:20:31;;;;;;;11.43;6.90;;;;;;;;;;10308657;28;20109;-66
2021/06/18 01:25:28;;;;;;;;;;;;;;;;;;10329675;28;20048;-65
2021/06/18 01:30:27;;;;;;;11.27;7.70;;;;;;;;;;10333046;28;19928;-65
2021/06/18 01:35:25;;;;;;;8.60;7.35;;;;;;;;;;10333832;28;20048;-66
2021/06/18 01:40:24;;;;;;;8.88;7.40;;;;;;;;;;10319099;28;20060;-65
2021/06/18 01:45:22;;;;;;;11.07;8.05;;;;;;;;;;10314321;28;20388;-66
2021/06/18 01:50:21;;;;;;;9.80;7.00;;;;;;;;;;10330898;28;20042;-66
2021/06/18 01:55:18;;;;;;;;;;;;;;;;;;10304537;28;20113;-68
2021/06/18 02:00:16;;;;;;;9.60;7.85;;;;;;;;;;10332441;28;19960;-63
2021/06/18 02:05:13;;;;;;;;;;;;;;;;;;10338264;28;20041;-65
2021/06/18 02:10:11;;;;;;;8.82;7.93;;;;;;;;;;10337216;28;19916;-63
2021/06/18 02:15:08;;;;;;;;;;;;;;;;;;10307288;28;20049;-68
2021/06/18 02:20:06;;;;;;;14.10;9.03;;;;;;;;;;10303402;28;19943;-64
2021/06/18 02:25:05;;;;;;;14.20;11.40;;;;;;;;;;10324312;28;20045;-67
2021/06/18 02:30:04;;;;;;;12.32;9.70;;;;;;;;;;10354912;28;20106;-67
2021/06/18 02:35:05;;;;;;;9.75;8.05;;;;;;;;;;10301462;22;20056;-68
2021/06/18 02:40:04;;;;;;;11.82;7.93;;;;;;;;;;10285361;28;20230;-64
2021/06/18 02:45:01;;;;;;;9.07;8.18;;;;;;;;;;10327527;28;20090;-64
2021/06/18 02:50:10;;;;;;;9.25;7.40;;;;;;;;;;10328047;28;20041;-64
2021/06/18 02:55:18;;;;;;;10.30;8.43;;;;;;;;;;10321035;28;20198;-66
2021/06/18 03:00:16;;;;;;;;;;;;;;;;;;10331232;28;20167;-66
2021/06/18 03:05:14;;;;;;;9.18;8.27;;;;;;;;;;10332637;28;20051;-63
2021/06/18 03:10:15;;;;;;;11.13;8.27;;;;;;;;;;10326733;28;20036;-64
2021/06/18 03:15:13;;;;;;;10.20;7.82;;;;;;;;;;10305491;28;20098;-64
2021/06/18 03:20:15;;;;;;;11.27;7.82;;;;;;;;;;10331421;28;20550;-64
2021/06/18 03:25:13;;;;;;;9.63;8.63;;;;;;;;;;10326517;28;20040;-64
2021/06/18 03:30:10;;;;;;;;;;;;;;;;;;10345565;28;20441;-63
2021/06/18 03:35:08;;;;;;;12.65;10.27;;;;;;;;;;10345195;28;19945;-62
2021/06/18 03:40:06;;;;;;;12.95;10.02;;;;;;;;;;10344389;28;20068;-63
2021/06/18 03:45:05;;;;;;;12.95;9.27;;;;;;;;;;10339125;28;20043;-63
2021/06/18 03:50:03;;;;;;;10.48;9.05;;;;;;;;;;10329039;28;20044;-63
2021/06/18 03:55:02;;;;;;;11.77;9.90;;;;;;;;;;10339686;28;20141;-63
2021/06/18 04:00:00;;;;;;;14.15;10.57;;;;;;;;;;10343717;28;20036;-63
2021/06/18 04:04:59;;;;;;;9.35;8.45;;;;;;;;;;10343500;28;20163;-63
2021/06/18 04:09:57;;;;;;;12.00;9.70;;;;;;;;;;10343489;28;20044;-63
2021/06/18 04:14:56;;;;;;;10.75;8.38;;;;;;;;;;10342717;28;20375;-62
2021/06/18 04:19:53;;;;;;;8.95;8.05;;;;;;;;;;10338672;28;20124;-61
2021/06/18 04:24:51;;;;;;;11.75;9.95;;;;;;;;;;10337456;28;20122;-62
2021/06/18 04:29:48;;;;;;;12.63;11.00;;;;;;;;;;10311143;28;20045;-61
2021/06/18 04:34:46;;;;;;;15.20;10.68;;;;;;;;;;10326288;28;20502;-63
2021/06/18 04:39:44;;;;;;;12.45;10.02;;;;;;;;;;10343245;28;20033;-63
2021/06/18 04:44:41;;;;;;;12.70;8.97;;;;;;;;;;10326344;28;20438;-63
2021/06/18 04:49:38;;;;;;;11.87;10.50;;;;;;;;;;10306049;28;20025;-62
2021/06/18 04:54:36;;;;;;;17.90;13.80;;;;;;;;;;10317014;28;20446;-62
2021/06/18 04:59:35;;;;;;;19.67;17.03;;;;;;;;;;10301492;28;20509;-63
2021/06/18 05:04:32;;;;;;;23.63;19.27;;;;;;;;;;10318270;28;20030;-63
2021/06/18 05:09:30;;;;;;;24.83;22.13;;;;;;;;;;10303591;28;20032;-63
2021/06/18 05:14:27;;;;;;;27.40;19.37;;;;;;;;;;10318870;28;20136;-64
2021/06/18 05:19:24;;;;;;;24.23;19.50;;;;;;;;;;10318738;28;20318;-63
2021/06/18 05:24:22;;;;;;;29.87;22.73;;;;;;;;;;10319823;28;20033;-64
2021/06/18 05:29:19;;;;;;;;;;;;;;;;;;10316781;28;20033;-64
2021/06/18 05:34:17;;;;;;;21.67;18.33;;;;;;;;;;10324692;28;20041;-64
2021/06/18 05:39:15;;;;;;;20.15;16.60;;;;;;;;;;10315395;28;20091;-65
2021/06/18 05:44:12;;;;;;;;;;;;;;;;;;10313819;28;20283;-63
2021/06/18 05:49:10;;;;;;;22.00;17.83;;;;;;;;;;10315358;28;20306;-64
2021/06/18 05:54:07;;;;;;;;;;;;;;;;;;10295828;28;20029;-63
2021/06/18 05:59:05;;;;;;;21.63;19.00;;;;;;;;;;10320930;28;19917;-63
2021/06/18 06:04:02;;;;;;;;;;;;;;;;;;10315218;28;20033;-63
2021/06/18 06:08:59;;;;;;;20.50;18.30;;;;;;;;;;10322509;28;20346;-64
2021/06/18 06:14:04;;;;;;;22.05;18.25;;;;;;;;;;10308483;28;20323;-63
2021/06/18 06:19:02;;;;;;;20.02;17.58;;;;;;;;;;10316108;28;20039;-64
2021/06/18 06:23:59;;;;;;;24.05;17.77;;;;;;;;;;10316024;28;20064;-63
2021/06/18 06:28:57;;;;;;;21.88;17.27;;;;;;;;;;10306620;28;20472;-64
2021/06/18 06:33:54;;;;;;;23.23;17.30;;;;;;;;;;10311546;28;20049;-64
2021/06/18 06:38:52;;;;;;;20.30;16.48;;;;;;;;;;10323979;28;20287;-65
2021/06/18 06:43:49;;;;;;;20.08;15.73;;;;;;;;;;10308580;28;20460;-65
2021/06/18 06:48:48;;;;;;;18.48;14.73;;;;;;;;;;10319843;28;20045;-65
2021/06/18 06:53:45;;;;;;;17.40;14.95;;;;;;;;;;10320361;28;20530;-65
2021/06/18 06:58:43;;;;;;;18.47;14.57;;;;;;;;;;10316379;28;20108;-65
2021/06/18 07:03:40;;;;;;;15.85;14.15;;;;;;;;;;10312924;28;20264;-64
2021/06/18 07:08:38;;;;;;;14.18;12.77;;;;;;;;;;10329793;28;20035;-65
2021/06/18 07:13:35;;;;;;;20.03;15.07;;;;;;;;;;10295101;28;20021;-65
2021/06/18 07:18:35;;;;;;;15.82;13.75;;;;;;;;;;10322758;28;20029;-65
2021/06/18 07:23:32;;;;;;;17.60;13.18;;;;;;;;;;10332137;28;20450;-64
2021/06/18 07:28:30;;;;;;;16.53;13.60;;;;;;;;;;10328615;28;20139;-65
2021/06/18 07:33:27;;;;;;;14.98;12.95;;;;;;;;;;10312412;28;20036;-65
2021/06/18 07:38:25;;;;;;;14.05;11.63;;;;;;;;;;10323218;28;20078;-65
2021/06/18 07:43:22;;;;;;;18.83;14.83;;;;;;;;;;10316849;28;20029;-65
2021/06/18 07:48:20;;;;;;;13.57;12.18;;;;;;;;;;10318222;28;20491;-65
2021/06/18 07:53:18;;;;;;;15.13;13.07;;;;;;;;;;10330640;28;20044;-65
2021/06/18 07:58:17;;;;;;;12.83;11.13;;;;;;;;;;10302797;28;20522;-65
2021/06/18 08:03:15;;;;;;;16.13;12.82;;;;;;;;;;10295281;28;20080;-65
2021/06/18 08:08:12;;;;;;;17.27;13.18;;;;;;;;;;10307430;28;20132;-65
2021/06/18 08:13:10;;;;;;;12.50;10.85;;;;;;;;;;10312956;28;20052;-66
2021/06/18 08:18:07;;;;;;;17.33;12.23;;;;;;;;;;10319354;28;20044;-65
2021/06/18 08:23:05;;;;;;;15.80;11.30;;;;;;;;;;10310700;28;20297;-65
2021/06/18 08:28:02;;;;;;;16.03;11.60;;;;;;;;;;10309468;28;20037;-65
2021/06/18 08:33:00;;;;;;;11.88;9.75;;;;;;;;;;10293848;28;20316;-65
2021/06/18 08:38:00;;;;;;;13.07;11.77;;;;;;;;;;10314403;28;20040;-65
2021/06/18 08:42:58;;;;;;;13.80;12.40;;;;;;;;;;10306567;28;20419;-65
2021/06/18 08:47:56;;;;;;;14.40;12.00;;;;;;;;;;10327490;28;20564;-65
2021/06/18 08:52:55;;;;;;;15.80;11.30;;;;;;;;;;10320321;28;20045;-65
2021/06/18 08:57:58;;;;;;;11.50;10.32;;;;;;;;;;10310810;28;20268;-64
2021/06/18 09:02:56;;;;;;;8.65;6.97;;;;;;;;;;10317591;28;20600;-64
2021/06/18 09:07:53;;;;;;;10.68;9.68;;;;;;;;;;10307328;28;20216;-65
2021/06/18 09:13:06;;;;;;;10.23;9.02;;;;;;;;;;10309942;28;20037;-65
2021/06/18 09:18:24;;;;;;;9.13;7.28;;;;;;;;;;10310677;28;20037;-65
2021/06/18 09:23:29;;;;;;;8.90;7.97;;;;;;;;;;10328881;28;20040;-65
2021/06/18 09:28:26;;;;;;;7.97;7.22;;;;;;;;;;10324043;28;20195;-65
2021/06/18 09:33:27;;;;;;;7.43;6.67;;;;;;;;;;10318391;28;20204;-65
2021/06/18 09:38:38;;;;;;;7.53;6.15;;;;;;;;;;10287820;28;20065;-65
2021/06/18 09:43:42;;;;;;;9.77;6.55;;;;;;;;;;10313567;28;20064;-65
2021/06/18 09:48:40;;;;;;;6.43;5.82;;;;;;;;;;10307347;28;20125;-65
2021/06/18 09:53:37;;;;;;;6.30;4.87;;;;;;;;;;10321590;28;20112;-65
2021/06/18 09:58:38;;;;;;;5.38;4.88;;;;;;;;;;10299580;28;20735;-64
2021/06/18 10:03:36;;;;;;;6.88;4.93;;;;;;;;;;10335377;28;20409;-64
2021/06/18 10:08:34;;;;;;;6.22;5.13;;;;;;;;;;10292301;28;20122;-64
2021/06/18 10:13:31;;;;;;;8.30;4.13;;;;;;;;;;10312383;28;20049;-65
2021/06/18 10:18:29;;;;;;;5.28;4.60;;;;;;;;;;10317865;28;20260;-65
2021/06/18 10:23:26;;;;;;;4.67;4.27;;;;;;;;;;10313015;28;20030;-65
2021/06/18 10:28:27;;;;;;;5.20;4.43;;;;;;;;;;10303125;28;20037;-65
2021/06/18 10:33:27;;;;;;;4.40;4.00;;;;;;;;;;10311915;28;20041;-64
2021/06/18 10:38:25;;;;;;;5.53;4.20;;;;;;;;;;10320050;28;20389;-64
2021/06/18 10:43:31;;;;;;;4.38;4.00;;;;;;;;;;10328565;28;20037;-65
2021/06/18 10:48:44;;;;;;;4.60;4.20;;;;;;;;;;10319542;28;20410;-65
2021/06/18 10:53:50;;;;;;;4.45;4.05;;;;;;;;;;10312645;28;20041;-66
2021/06/18 10:59:05;;;;;;;5.15;3.25;;;;;;;;;;10296671;28;20343;-66
2021/06/18 11:04:03;;;;;;;4.00;3.70;;;;;;;;;;10300050;28;20049;-66
2021/06/18 11:09:01;;;;;;;4.68;3.90;;;;;;;;;;10319813;28;20033;-66
2021/06/18 11:14:02;;;;;;;4.70;3.80;;;;;;;;;;10294849;28;20041;-65
2021/06/18 11:19:18;;;;;;;4.13;3.70;;;;;;;;;;10315399;28;20114;-65
2021/06/18 11:24:32;;;;;;;5.55;3.50;;;;;;;;;;10339056;28;20402;-65
2021/06/18 11:29:30;;;;;;;5.68;3.50;;;;;;;;;;10311878;28;20068;-66
2021/06/18 11:34:28;;;;;;;4.33;3.00;;;;;;;;;;10306563;28;20128;-65
2021/06/18 11:39:26;;;;;;;3.25;2.70;;;;;;;;;;10288563;28;20498;-67
2021/06/18 11:44:25;;;;;;;3.33;2.85;;;;;;;;;;10316483;28;20443;-65
2021/06/18 11:49:23;;;;;;;4.63;3.00;;;;;;;;;;10305532;28;20113;-64
2021/06/18 11:54:22;;;;;;;4.05;3.65;;;;;;;;;;10309256;28;20040;-64
2021/06/18 11:59:19;;;;;;;3.75;2.97;;;;;;;;;;10313380;28;20052;-65
2021/06/18 12:04:17;;;;;;;3.27;2.97;;;;;;;;;;10292659;28;20040;-64
2021/06/18 12:09:16;;;;;;;3.10;2.67;;;;;;;;;;10321482;28;20040;-64
2021/06/18 12:14:14;;;;;;;2.90;2.70;;;;;;;;;;10309185;28;20041;-64
2021/06/18 12:19:22;;;;;;;5.00;3.10;;;;;;;;;;10305518;28;20044;-63
2021/06/18 12:24:24;;;;;;;3.00;2.70;;;;;;;;;;10311277;28;20048;-66
2021/06/18 12:29:22;;;;;;;2.88;2.63;;;;;;;;;;10292046;28;20447;-65
2021/06/18 12:34:19;;;;;;;2.70;2.50;;;;;;;;;;10294717;28;20981;-66
2021/06/18 12:39:17;;;;;;;3.13;2.50;;;;;;;;;;10304658;28;20367;-66
2021/06/18 12:44:14;;;;;;;3.33;2.63;;;;;;;;;;10316154;28;20128;-66
2021/06/18 12:49:11;;;;;;;3.43;2.97;;;;;;;;;;10296656;28;20059;-65
2021/06/18 12:54:09;;;;;;;2.95;2.58;;;;;;;;;;10288572;28;20411;-65
2021/06/18 12:59:11;;;;;;;3.33;2.90;;;;;;;;;;10308069;28;20103;-66
2021/06/18 13:04:10;;;;;;;4.45;3.30;;;;;;;;;;10311381;28;20037;-65
2021/06/18 13:09:08;;;;;;;3.00;2.70;;;;;;;;;;10288913;28;20037;-65
2021/06/18 13:14:08;;;;;;;3.13;2.83;;;;;;;;;;10295198;28;20110;-66
2021/06/18 13:19:06;;;;;;;3.78;3.33;;;;;;;;;;10316571;28;20335;-66
2021/06/18 13:24:14;;;;;;;4.15;3.08;;;;;;;;;;10325699;28;20084;-66
2021/06/18 13:29:23;;;;;;;3.25;2.95;;;;;;;;;;10312161;28;20040;-65
2021/06/18 13:34:23;;;;;;;3.47;2.83;;;;;;;;;;10324019;28;20037;-65
2021/06/18 13:39:23;;;;;;;3.67;2.67;;;;;;;;;;10324073;28;20037;-66
2021/06/18 13:44:20;;;;;;;3.22;2.78;;;;;;;;;;10314872;28;20098;-64
2021/06/18 13:49:18;;;;;;;3.63;2.77;;;;;;;;;;10299113;28;20038;-65
2021/06/18 13:54:15;;;;;;;2.80;2.60;;;;;;;;;;10312452;28;20094;-65
2021/06/18 13:59:13;;;;;;;2.97;2.40;;;;;;;;;;10303771;28;20654;-66
2021/06/18 14:04:11;;;;;;;3.08;2.88;;;;;;;;;;10295421;28;20067;-66
2021/06/18 14:09:08;;;;;;;3.50;2.57;;;;;;;;;;10297844;28;20037;-65
2021/06/18 14:14:06;;;;;;;2.70;2.30;;;;;;;;;;10316638;28;20287;-66
2021/06/18 14:19:03;;;;;;;3.30;2.90;;;;;;;;;;10309874;28;20519;-66
2021/06/18 14:24:01;;;;;;;5.13;2.63;;;;;;;;;;10328503;28;20103;-66
2021/06/18 14:28:59;;;;;;;3.03;2.83;;;;;;;;;;10288670;28;20417;-65
2021/06/18 14:33:56;;;;;;;3.60;2.78;;;;;;;;;;10294198;28;20033;-66
2021/06/18 14:38:54;;;;;;;4.53;2.80;;;;;;;;;;10291444;28;20120;-67
2021/06/18 14:43:51;;;;;;;3.50;3.20;;;;;;;;;;10317735;28;20417;-66
2021/06/18 14:48:49;;;;;;;3.73;3.23;;;;;;;;;;10322910;28;20768;-67
2021/06/18 14:53:46;;;;;;;3.30;2.88;;;;;;;;;;10319312;28;20087;-66
2021/06/18 14:58:43;;;;;;;3.70;2.80;;;;;;;;;;10320305;28;20029;-66
2021/06/18 15:03:43;;;;;;;3.77;2.80;;;;;;;;;;10318789;28;20287;-66
2021/06/18 15:08:40;;;;;;;5.88;2.95;;;;;;;;;;10314320;28;20041;-66
2021/06/18 15:13:38;;;;;;;3.00;2.70;;;;;;;;;;10299697;28;20038;-66
2021/06/18 15:18:36;;;;;;;5.18;3.03;;;;;;;;;;10305680;28;20283;-66
2021/06/18 15:23:34;;;;;;;4.53;3.30;;;;;;;;;;10328473;28;20033;-66
2021/06/18 15:28:31;;;;;;;3.92;2.65;;;;;;;;;;10293821;28;20113;-65
2021/06/18 15:33:29;;;;;;;3.90;3.13;;;;;;;;;;10325902;28;20553;-65
2021/06/18 15:38:26;;;;;;;4.35;2.83;;;;;;;;;;10310612;28;20037;-65
2021/06/18 15:43:24;;;;;;;3.67;3.00;;;;;;;;;;10323043;28;20463;-65
2021/06/18 15:48:21;;;;;;;4.30;2.77;;;;;;;;;;10297331;28;20289;-65
2021/06/18 15:53:19;;;;;;;4.20;3.00;;;;;;;;;;10307544;28;20291;-65
2021/06/18 15:58:16;;;;;;;4.03;2.63;;;;;;;;;;10298925;28;20033;-64
2021/06/18 16:03:15;;;;;;;5.90;3.08;;;;;;;;;;10273592;28;20299;-64
2021/06/18 16:08:12;;;;;;;3.05;2.72;;;;;;;;;;10317627;28;20064;-64
2021/06/18 16:13:10;;;;;;;5.03;3.13;;;;;;;;;;10314442;28;20052;-65
2021/06/18 16:18:07;;;;;;;3.43;3.07;;;;;;;;;;10316042;28;20057;-65
2021/06/18 16:23:05;;;;;;;9.20;3.03;;;;;;;;;;10315587;28;20652;-65
2021/06/18 16:28:03;;;;;;;3.35;2.80;;;;;;;;;;10236389;28;20268;-65
2021/06/18 16:33:01;;;;;;;5.05;3.28;;;;;;;;;;10272340;28;20041;-65
2021/06/18 16:37:58;;;;;;;4.95;2.85;;;;;;;;;;10263356;28;20033;-65
2021/06/18 16:42:55;;;;;;;5.23;2.93;;;;;;;;;;10275227;28;20044;-65
2021/06/18 16:47:54;;;;;;;4.00;3.20;;;;;;;;;;10280612;28;20046;-65
2021/06/18 16:52:51;;;;;;;4.38;3.42;;;;;;;;;;10302357;28;20034;-65
2021/06/18 16:57:48;;;;;;;3.50;3.10;;;;;;;;;;10259772;28;20030;-65
2021/06/18 17:02:46;;;;;;;3.37;2.60;;;;;;;;;;10271452;28;20040;-65
2021/06/18 17:07:48;;;;;;;5.28;3.05;;;;;;;;;;10240906;28;20500;-65
2021/06/18 17:12:47;;;;;;;5.03;2.97;;;;;;;;;;10284386;28;20042;-65
2021/06/18 17:17:44;;;;;;;5.00;3.28;;;;;;;;;;10288777;28;20046;-64
2021/06/18 17:22:42;;;;;;;4.07;3.20;;;;;;;;;;10277407;28;20041;-65
2021/06/18 17:27:40;;;;;;;4.78;3.10;;;;;;;;;;10279886;28;20553;-64
2021/06/18 17:32:37;;;;;;;4.63;3.00;;;;;;;;;;10282015;28;20049;-64
2021/06/18 17:37:35;;;;;;;4.60;2.97;;;;;;;;;;10279431;28;20375;-64
2021/06/18 17:42:32;;;;;;;6.30;3.28;;;;;;;;;;10279405;28;20041;-65
2021/06/18 17:47:30;;;;;;;5.20;3.10;;;;;;;;;;10284191;28;20519;-64
2021/06/18 17:52:27;;;;;;;4.53;3.20;;;;;;;;;;10291623;28;21201;-64
2021/06/18 17:57:25;;;;;;;3.73;3.33;;;;;;;;;;10283088;28;20280;-64
2021/06/18 18:02:22;;;;;;;3.65;3.08;;;;;;;;;;10283440;28;20042;-66
2021/06/18 18:07:19;;;;;;;4.60;2.80;;;;;;;;;;10288567;28;20033;-66
2021/06/18 18:12:20;;;;;;;6.17;3.33;;;;;;;;;;10276081;28;21156;-64
2021/06/18 18:17:18;;;;;;;5.60;3.53;;;;;;;;;;10299024;28;20057;-65
2021/06/18 18:22:15;;;;;;;5.23;3.47;;;;;;;;;;10285993;28;20065;-64
2021/06/18 18:27:13;;;;;;;6.00;3.33;;;;;;;;;;10274731;28;20041;-64
2021/06/18 18:32:10;;;;;;;5.22;3.22;;;;;;;;;;10274230;28;20049;-65
2021/06/18 18:37:08;;;;;;;4.47;3.23;;;;;;;;;;10293032;28;20034;-66
2021/06/18 18:42:06;;;;;;;3.78;3.30;;;;;;;;;;10285877;28;20280;-64
2021/06/18 18:47:03;;;;;;;3.58;3.15;;;;;;;;;;10272157;28;20034;-64
2021/06/18 18:52:01;;;;;;;6.70;3.35;;;;;;;;;;10281242;28;20407;-64
2021/06/18 18:57:02;;;;;;;5.38;3.55;;;;;;;;;;10296531;28;20562;-64
2021/06/18 19:01:59;;;;;;;3.65;3.33;;;;;;;;;;10288216;28;20123;-64
2021/06/18 19:06:58;;;;;;;5.97;3.38;;;;;;;;;;10298015;28;20037;-67
2021/06/18 19:12:00;;;;;;;3.33;3.03;;;;;;;;;;10281093;28;20417;-65
2021/06/18 19:16:58;;;;;;;3.53;3.20;;;;;;;;;;10287376;28;20128;-65
2021/06/18 19:21:55;;;;;;;5.15;3.42;;;;;;;;;;10279639;28;20044;-65
2021/06/18 19:26:53;;;;;;;4.13;3.33;;;;;;;;;;10270816;28;20078;-64
2021/06/18 19:31:50;;;;;;;6.25;3.20;;;;;;;;;;10267581;28;20341;-64
2021/06/18 19:36:48;;;;;;;6.20;3.33;;;;;;;;;;10273294;28;20125;-65
2021/06/18 19:41:46;;;;;;;3.97;3.37;;;;;;;;;;10285867;28;20040;-64
2021/06/18 19:46:43;;;;;;;4.50;2.95;;;;;;;;;;10301638;28;20045;-65
2021/06/18 19:51:41;;;;;;;5.80;3.03;;;;;;;;;;10260274;28;20498;-65
2021/06/18 19:56:39;;;;;;;6.03;3.70;;;;;;;;;;10259879;28;20326;-65
2021/06/18 20:01:36;;;;;;;5.82;3.08;;;;;;;;;;10273647;28;20033;-65
2021/06/18 20:06:34;;;;;;;4.50;3.40;;;;;;;;;;10272728;28;20041;-65
2021/06/18 20:11:31;;;;;;;7.25;3.95;;;;;;;;;;10265489;28;20322;-66
2021/06/18 20:16:29;;;;;;;3.90;3.10;;;;;;;;;;10269830;28;20026;-66
2021/06/18 20:21:27;;;;;;;6.72;3.60;;;;;;;;;;10273225;28;20029;-65
2021/06/18 20:26:24;;;;;;;4.63;3.50;;;;;;;;;;10275680;28;20068;-65
2021/06/18 20:31:22;;;;;;;4.45;3.60;;;;;;;;;;10272274;28;20222;-65
2021/06/18 20:36:21;;;;;;;4.57;4.18;;;;;;;;;;10295645;28;20040;-66
2021/06/18 20:41:23;;;;;;;5.60;4.30;;;;;;;;;;10270642;28;20196;-65
2021/06/18 20:46:21;;;;;;;5.25;4.13;;;;;;;;;;10278234;28;20121;-65
2021/06/18 20:51:21;;;;;;;7.60;4.40;;;;;;;;;;10279134;28;20044;-65
2021/06/18 20:56:18;;;;;;;5.28;4.40;;;;;;;;;;10282454;28;20044;-64
2021/06/18 21:01:18;;;;;;;5.40;4.90;;;;;;;;;;10279193;28;20296;-64
2021/06/18 21:06:16;;;;;;;6.70;5.00;;;;;;;;;;10263101;28;20033;-64
2021/06/18 21:11:14;;;;;;;7.18;5.65;;;;;;;;;;10281377;28;20038;-64
2021/06/18 21:16:11;;;;;;;6.17;5.67;;;;;;;;;;10274988;28;20040;-65
2021/06/18 21:21:09;;;;;;;6.20;5.50;;;;;;;;;;10276218;28;20285;-64
2021/06/18 21:26:06;;;;;;;6.70;5.95;;;;;;;;;;10273205;28;20041;-65
2021/06/18 21:31:04;;;;;;;6.70;6.07;;;;;;;;;;10263916;28;20038;-65
2021/06/18 21:36:01;;;;;;;8.40;7.33;;;;;;;;;;10247567;28;20044;-66
2021/06/18 21:40:59;;;;;;;9.27;6.28;;;;;;;;;;10261733;28;20037;-64
2021/06/18 21:45:56;;;;;;;10.68;6.97;;;;;;;;;;10267573;28;20042;-65
2021/06/18 21:50:54;;;;;;;8.18;5.40;;;;;;;;;;10272343;28;20097;-65
2021/06/18 21:55:51;;;;;;;8.15;5.53;;;;;;;;;;10279440;28;20036;-63
2021/06/18 22:00:49;;;;;;;10.60;4.20;;;;;;;;;;10275949;28;20046;-65
2021/06/18 22:05:46;;;;;;;9.07;4.05;;;;;;;;;;10273271;28;20045;-63
2021/06/18 22:10:45;;;;;;;7.70;3.50;;;;;;;;;;10275691;28;20077;-65
2021/06/18 22:15:43;;;;;;;12.30;3.83;;;;;;;;;;10265407;28;20854;-65
2021/06/18 22:20:40;;;;;;;9.75;2.95;;;;;;;;;;10259811;28;20096;-65
2021/06/18 22:25:38;;;;;;;14.05;3.78;;;;;;;;;;10278126;28;20041;-65
2021/06/18 22:30:37;;;;;;;11.35;2.92;;;;;;;;;;10280337;28;20529;-65
2021/06/18 22:35:35;;;;;;;17.50;4.28;;;;;;;;;;10283491;28;20052;-64
2021/06/18 22:40:32;;;;;;;15.73;4.03;;;;;;;;;;10262741;28;20029;-65
2021/06/18 22:45:30;;;;;;;12.95;3.78;;;;;;;;;;10265520;28;20037;-65
2021/06/18 22:50:29;;;;;;;11.00;3.58;;;;;;;;;;10272262;28;20410;-65
2021/06/18 22:55:27;;;;;;;18.05;3.80;;;;;;;;;;10255562;28;20111;-65
2021/06/18 23:00:30;;;;;;;10.88;3.42;;;;;;;;;;10240490;28;20056;-65
2021/06/18 23:05:28;;;;;;;10.20;2.50;;;;;;;;;;10238096;28;20037;-65
2021/06/18 23:10:27;;;;;;;11.05;2.95;;;;;;;;;;10220717;28;20038;-64
2021/06/18 23:15:24;;;;;;;10.05;3.05;;;;;;;;;;10237296;28;20042;-65
2021/06/18 23:20:23;;;;;;;12.65;3.20;;;;;;;;;;10242347;28;20101;-65
2021/06/18 23:25:22;;;;;;;15.10;3.28;;;;;;;;;;10260496;28;20038;-65
2021/06/18 23:30:21;;;;;;;11.75;3.50;;;;;;;;;;10260963;28;20037;-63
2021/06/18 23:35:19;;;;;;;7.78;2.60;;;;;;;;;;10263036;28;20415;-64
2021/06/18 23:40:17;;;;;;;8.75;3.00;;;;;;;;;;10269672;28;20037;-64
2021/06/18 23:45:15;;;;;;;8.52;2.47;;;;;;;;;;10264904;28;20135;-65
2021/06/18 23:50:13;;;;;;;10.63;2.80;;;;;;;;;;10260631;28;20041;-64
2021/06/18 23:55:13;;;;;;;12.18;2.92;;;;;;;;;;10305961;22;20052;-71
